createdAt,value
2023-05-13T00:04:15.145Z,7.07
2023-05-13T00:09:06.757Z,6.82
2023-05-13T00:13:58.426Z,6.18
2023-05-13T00:18:50.584Z,7.32
2023-05-13T00:23:42.232Z,5.88
2023-05-13T00:28:33.791Z,6.15
2023-05-13T00:33:25.585Z,6.38
2023-05-13T00:38:17.815Z,6.05
2023-05-13T00:43:09.367Z,6.53
2023-05-13T00:48:01.139Z,6.82
2023-05-13T00:52:53.483Z,7.57
2023-05-13T00:57:45.065Z,6.43
2023-05-13T01:02:51.898Z,5.28
2023-05-13T01:07:57.517Z,9.00
2023-05-13T01:12:56.969Z,5.85
2023-05-13T01:17:54.814Z,6.18
2023-05-13T01:22:46.374Z,7.43
2023-05-13T01:27:38.047Z,10.07
2023-05-13T01:32:29.668Z,6.55
2023-05-13T01:37:21.604Z,6.65
2023-05-13T01:42:13.196Z,5.88
2023-05-13T01:47:04.925Z,8.80
2023-05-13T01:51:56.578Z,8.30
2023-05-13T01:56:48.158Z,6.60
2023-05-13T02:01:40.627Z,7.40
2023-05-13T02:06:32.419Z,11.23
2023-05-13T02:11:23.952Z,6.18
2023-05-13T02:16:17.711Z,6.63
2023-05-13T02:21:09.432Z,6.75
2023-05-13T02:26:01.059Z,5.30
2023-05-13T02:30:52.681Z,7.95
2023-05-13T02:35:44.293Z,9.05
2023-05-13T02:40:35.984Z,8.05
2023-05-13T02:45:27.520Z,6.88
2023-05-13T02:50:19.443Z,5.75
2023-05-13T02:55:11.448Z,7.53
2023-05-13T03:00:04.706Z,6.90
2023-05-13T03:04:56.657Z,8.43
2023-05-13T03:09:48.232Z,8.25
2023-05-13T03:14:40.226Z,8.07
2023-05-13T03:19:33.133Z,7.20
2023-05-13T03:24:24.796Z,9.30
2023-05-13T03:29:16.531Z,7.03
2023-05-13T03:34:08.131Z,9.13
2023-05-13T03:38:59.710Z,9.23
2023-05-13T03:43:51.290Z,7.82
2023-05-13T03:48:43.039Z,8.88
2023-05-13T03:53:34.753Z,9.48
2023-05-13T03:58:26.293Z,10.10
2023-05-13T04:03:18.719Z,8.02
2023-05-13T04:08:11.347Z,9.60
2023-05-13T04:13:02.972Z,9.32
2023-05-13T04:17:54.658Z,12.80
2023-05-13T04:22:46.325Z,10.63
2023-05-13T04:27:37.879Z,9.95
2023-05-13T04:32:29.617Z,9.45
2023-05-13T04:37:21.213Z,9.98
2023-05-13T04:42:13.753Z,9.45
2023-05-13T04:47:05.813Z,11.85
2023-05-13T04:51:57.618Z,10.95
2023-05-13T04:56:49.549Z,8.45
2023-05-13T05:01:41.190Z,11.23
2023-05-13T05:06:33.455Z,12.65
2023-05-13T05:11:25.083Z,12.38
2023-05-13T05:16:17.316Z,12.55
2023-05-13T05:21:12.357Z,12.60
2023-05-13T05:31:03.237Z,13.55
2023-05-13T05:35:54.922Z,11.48
2023-05-13T05:40:46.667Z,11.25
2023-05-13T05:45:38.838Z,11.40
2023-05-13T05:50:31.240Z,12.57
2023-05-13T05:55:22.773Z,11.35
2023-05-13T06:00:14.805Z,11.43
2023-05-13T06:05:07.159Z,11.10
2023-05-13T06:09:58.737Z,11.52
2023-05-13T06:14:50.559Z,10.13
2023-05-13T06:19:45.136Z,11.48
2023-05-13T06:24:37.987Z,11.45
2023-05-13T06:29:29.672Z,13.48
2023-05-13T06:34:21.276Z,12.13
2023-05-13T06:39:13.342Z,16.92
2023-05-13T06:44:06.836Z,15.30
2023-05-13T06:48:58.876Z,11.65
2023-05-13T06:53:50.383Z,11.13
2023-05-13T06:58:42.147Z,9.32
2023-05-13T07:03:33.774Z,10.65
2023-05-13T07:08:25.458Z,9.52
2023-05-13T07:13:19.046Z,12.43
2023-05-13T07:18:10.712Z,9.98
2023-05-13T07:23:02.499Z,12.95
2023-05-13T07:27:54.109Z,12.63
2023-05-13T07:32:45.731Z,8.77
2023-05-13T07:37:37.624Z,8.05
2023-05-13T07:42:30.032Z,20.73
2023-05-13T07:47:21.909Z,15.00
2023-05-13T07:52:13.595Z,7.60
2023-05-13T07:57:05.234Z,7.07
2023-05-13T08:01:56.783Z,6.57
2023-05-13T08:06:48.378Z,5.53
2023-05-13T08:11:40.094Z,5.28
2023-05-13T08:16:34.222Z,5.85
2023-05-13T08:21:25.894Z,11.75
2023-05-13T08:26:17.803Z,9.70
2023-05-13T08:31:12.259Z,8.98
2023-05-13T08:36:04.541Z,6.10
2023-05-13T08:40:57.126Z,11.30
2023-05-13T08:45:52.313Z,13.25
2023-05-13T08:50:44.858Z,11.65
2023-05-13T08:55:36.512Z,5.55
2023-05-13T09:00:28.302Z,5.10
2023-05-13T09:05:22.095Z,3.70
2023-05-13T09:10:13.983Z,5.80
2023-05-13T09:15:09.995Z,4.40
2023-05-13T09:20:08.155Z,5.80
2023-05-13T09:24:59.928Z,4.32
2023-05-13T09:30:00.553Z,3.83
2023-05-13T09:34:52.077Z,4.20
2023-05-13T09:39:43.715Z,4.07
2023-05-13T09:44:35.374Z,4.80
2023-05-13T09:49:27.032Z,4.60
2023-05-13T09:54:18.822Z,3.08
2023-05-13T09:59:10.445Z,3.33
2023-05-13T10:04:03.226Z,3.15
2023-05-13T10:08:59.128Z,4.72
2023-05-13T10:13:58.836Z,3.40
2023-05-13T10:18:51.788Z,3.30
2023-05-13T10:23:44.955Z,3.17
2023-05-13T10:28:36.899Z,2.70
2023-05-13T10:33:29.673Z,3.25
2023-05-13T10:38:53.511Z,4.65
2023-05-13T10:43:45.124Z,2.63
2023-05-13T10:48:43.212Z,5.05
2023-05-13T10:53:47.190Z,3.03
2023-05-13T10:58:39.231Z,3.05
2023-05-13T11:03:31.184Z,4.13
2023-05-13T11:08:38.938Z,2.60
2023-05-13T11:13:38.166Z,2.30
2023-05-13T11:18:31.523Z,3.63
2023-05-13T11:23:23.115Z,3.22
2023-05-13T11:28:18.648Z,3.78
2023-05-13T11:33:12.426Z,4.10
2023-05-13T11:38:04.257Z,4.13
2023-05-13T11:42:55.930Z,3.60
2023-05-13T11:47:47.612Z,5.18
2023-05-13T11:52:39.417Z,3.67
2023-05-13T11:57:32.831Z,5.45
2023-05-13T12:02:28.201Z,4.22
2023-05-13T12:07:26.750Z,4.13
2023-05-13T12:12:19.198Z,5.32
2023-05-13T12:17:11.434Z,4.53
2023-05-13T12:22:05.454Z,5.65
2023-05-13T12:27:04.950Z,6.15
2023-05-13T12:32:05.097Z,5.28
2023-05-13T12:36:56.725Z,5.57
2023-05-13T12:41:53.646Z,5.32
2023-05-13T12:46:55.375Z,4.05
2023-05-13T12:51:46.962Z,7.05
2023-05-13T12:56:40.264Z,5.88
2023-05-13T13:01:32.490Z,4.88
2023-05-13T13:06:24.139Z,6.32
2023-05-13T13:11:18.733Z,4.57
2023-05-13T13:16:10.728Z,7.45
2023-05-13T13:21:02.635Z,5.93
2023-05-13T13:25:54.277Z,4.60
2023-05-13T13:30:47.237Z,5.65
2023-05-13T13:35:39.014Z,5.88
2023-05-13T13:40:30.616Z,4.75
2023-05-13T13:45:24.353Z,7.25
2023-05-13T13:50:15.967Z,5.80
2023-05-13T13:55:08.013Z,7.30
2023-05-13T13:59:59.621Z,5.80
2023-05-13T14:04:52.364Z,6.03
2023-05-13T14:09:43.971Z,3.65
2023-05-13T14:14:35.539Z,4.50
2023-05-13T14:19:30.061Z,5.30
2023-05-13T14:24:22.957Z,4.40
2023-05-13T14:29:14.693Z,6.85
2023-05-13T14:34:07.940Z,6.15
2023-05-13T14:38:59.834Z,5.05
2023-05-13T14:43:51.651Z,6.57
2023-05-13T14:48:43.945Z,9.05
2023-05-13T14:53:35.694Z,4.75
2023-05-13T14:58:27.367Z,4.82
2023-05-13T15:03:18.958Z,7.53
2023-05-13T15:08:10.615Z,4.90
2023-05-13T15:13:02.338Z,6.78
2023-05-13T15:17:54.059Z,6.22
2023-05-13T15:22:45.998Z,4.53
2023-05-13T15:27:37.557Z,6.10
2023-05-13T15:32:30.193Z,4.65
2023-05-13T15:37:21.816Z,6.05
2023-05-13T15:42:14.104Z,6.97
2023-05-13T15:47:07.086Z,4.95
2023-05-13T15:51:59.345Z,4.55
2023-05-13T15:56:51.041Z,5.20
2023-05-13T16:01:42.758Z,6.30
2023-05-13T16:06:34.395Z,4.80
2023-05-13T16:11:26.056Z,5.82
2023-05-13T16:16:17.675Z,6.78
2023-05-13T16:21:09.411Z,7.50
2023-05-13T16:26:01.079Z,6.28
2023-05-13T16:30:54.759Z,4.45
2023-05-13T16:35:47.092Z,6.15
2023-05-13T16:40:38.695Z,8.02
2023-05-13T16:45:30.879Z,7.05
2023-05-13T16:50:23.062Z,5.25
2023-05-13T16:55:14.798Z,5.85
2023-05-13T17:00:07.309Z,6.95
2023-05-13T17:04:58.939Z,7.05
2023-05-13T17:09:50.738Z,5.38
2023-05-13T17:14:43.273Z,4.82
2023-05-13T17:19:34.898Z,4.97
2023-05-13T17:24:29.470Z,6.57
2023-05-13T17:29:21.066Z,7.88
2023-05-13T17:34:12.605Z,6.88
2023-05-13T17:39:04.523Z,4.47
2023-05-13T17:43:56.177Z,7.47
2023-05-13T17:48:47.872Z,5.35
2023-05-13T17:53:39.576Z,5.82
2023-05-13T17:58:31.169Z,7.22
2023-05-13T18:03:22.895Z,5.38
2023-05-13T18:08:14.515Z,6.50
2023-05-13T18:13:06.090Z,7.30
2023-05-13T18:17:57.745Z,7.63
2023-05-13T18:22:49.445Z,7.15
2023-05-13T18:27:41.102Z,6.72
2023-05-13T18:32:32.821Z,8.77
2023-05-13T18:37:24.439Z,8.63
2023-05-13T18:42:16.050Z,8.13
2023-05-13T18:47:07.718Z,10.23
2023-05-13T18:51:59.647Z,9.55
2023-05-13T18:56:51.392Z,8.02
2023-05-13T19:01:42.989Z,7.22
2023-05-13T19:06:38.166Z,6.95
2023-05-13T19:11:29.704Z,8.23
2023-05-13T19:16:21.440Z,7.80
2023-05-13T19:21:13.036Z,7.47
2023-05-13T19:26:04.778Z,7.97
2023-05-13T19:30:56.849Z,6.22
2023-05-13T19:35:48.580Z,6.28
2023-05-13T19:40:40.191Z,9.07
2023-05-13T19:45:31.933Z,8.85
2023-05-13T19:50:23.924Z,10.32
2023-05-13T19:55:15.748Z,8.90
2023-05-13T20:00:11.127Z,7.13
2023-05-13T20:05:03.058Z,10.85
2023-05-13T20:09:55.870Z,8.25
2023-05-13T20:14:49.668Z,7.28
2023-05-13T20:19:42.603Z,11.00
2023-05-13T20:24:34.162Z,11.23
2023-05-13T20:29:26.145Z,9.48
2023-05-13T20:34:17.778Z,10.32
2023-05-13T20:39:09.405Z,9.43
2023-05-13T20:44:01.014Z,11.05
2023-05-13T20:48:53.170Z,9.50
2023-05-13T20:53:46.601Z,7.53
2023-05-13T20:58:38.206Z,9.68
2023-05-13T21:03:29.921Z,9.13
2023-05-13T21:08:21.505Z,7.20
2023-05-13T21:13:13.057Z,8.73
2023-05-13T21:18:04.897Z,11.10
2023-05-13T21:22:56.578Z,12.15
2023-05-13T21:27:49.020Z,10.65
2023-05-13T21:32:40.716Z,14.38
2023-05-13T21:37:32.320Z,11.43
2023-05-13T21:42:23.895Z,14.80
2023-05-13T21:47:15.721Z,16.23
2023-05-13T21:52:07.354Z,14.50
2023-05-13T21:56:59.032Z,17.73
2023-05-13T22:01:50.841Z,15.88
2023-05-13T22:06:42.447Z,16.13
2023-05-13T22:11:34.042Z,21.35
2023-05-13T22:16:25.695Z,16.75
2023-05-13T22:21:17.422Z,23.80
2023-05-13T22:26:09.107Z,19.83
2023-05-13T22:31:00.856Z,21.92
2023-05-13T22:35:52.425Z,19.50
2023-05-13T22:40:44.012Z,21.52
2023-05-13T22:45:36.797Z,20.27
2023-05-13T22:50:28.399Z,23.02
2023-05-13T22:55:20.854Z,22.52
2023-05-13T23:00:13.428Z,23.23
2023-05-13T23:05:05.621Z,25.70
2023-05-13T23:09:57.208Z,23.98
2023-05-13T23:14:48.787Z,26.42
2023-05-13T23:19:40.389Z,25.33
2023-05-13T23:24:32.029Z,27.88
2023-05-13T23:29:27.506Z,27.30
2023-05-13T23:34:19.069Z,25.27
2023-05-13T23:39:10.676Z,29.52
2023-05-13T23:44:02.347Z,28.40
2023-05-13T23:48:53.951Z,28.15
2023-05-13T23:53:45.504Z,25.98
2023-05-13T23:58:37.053Z,27.10
